Time;durP1;ratioP1;P1;durP2;ratioP2;P2;SDS_P1;SDS_P2;PMS_P1;PMS_P2;Temp;Humidity;BMP_temperature;BMP_pressure;BME280_temperature;BME280_humidity;BME280_pressure;Samples;Min_cycle;Max_cycle;Signal;HPM_P1;HPM_P2
2023/03/14 05:52:02;;;;;;;2.40;1.80;;;10.40;1.00;;;;;;6321467;22;20326;-92
2023/03/14 05:54:29;;;;;;;2.53;1.70;;;10.40;1.00;;;;;;6341202;22;20170;-91
2023/03/14 05:56:56;;;;;;;2.93;1.83;;;10.40;1.00;;;;;;6341283;22;20228;-92
2023/03/14 05:59:23;;;;;;;3.07;1.63;;;10.40;1.00;;;;;;6341073;22;20635;-93
2023/03/14 06:01:50;;;;;;;1.70;1.47;;;10.50;1.00;;;;;;6340909;22;20629;-91
2023/03/14 06:04:17;;;;;;;7.93;6.20;;;10.50;1.00;;;;;;6340783;22;20673;-93
2023/03/14 06:06:44;;;;;;;4.03;2.43;;;10.60;1.00;;;;;;6341660;22;20625;-92
2023/03/14 06:09:12;;;;;;;5.93;3.73;;;10.60;99.90;;;;;;6340889;22;20633;-93
2023/03/14 06:11:39;;;;;;;5.40;3.63;;;10.70;99.90;;;;;;6343054;22;20168;-92
2023/03/14 06:14:07;;;;;;;6.63;5.00;;;10.70;99.90;;;;;;6341267;22;20548;-91
2023/03/14 06:16:34;;;;;;;5.17;3.80;;;10.80;99.90;;;;;;6341096;22;20188;-91
2023/03/14 06:19:01;;;;;;;7.17;3.00;;;10.90;99.90;;;;;;6340907;22;20167;-93
2023/03/14 06:21:28;;;;;;;8.50;5.07;;;10.90;1.00;;;;;;6340864;22;20160;-92
2023/03/14 06:23:55;;;;;;;20.87;11.90;;;10.90;99.90;;;;;;6341035;22;20222;-92
2023/03/14 06:26:24;;;;;;;10.33;6.60;;;10.90;99.90;;;;;;6341244;22;20172;-92
2023/03/14 06:28:53;;;;;;;3.80;2.80;;;11.00;99.90;;;;;;6340978;22;20174;-92
2023/03/14 06:31:20;;;;;;;7.00;5.17;;;11.00;99.90;;;;;;6340804;22;20251;-91
2023/03/14 06:33:47;;;;;;;11.57;6.50;;;11.10;99.90;;;;;;6340973;22;20223;-92
2023/03/14 06:36:13;;;;;;;14.17;5.60;;;11.00;99.90;;;;;;6341172;22;20198;-92
2023/03/14 06:38:40;;;;;;;8.53;4.07;;;11.10;33.30;;;;;;6341027;22;20478;-92
2023/03/14 06:41:08;;;;;;;9.23;5.47;;;11.10;1.00;;;;;;6340838;22;20171;-92
2023/03/14 06:43:36;;;;;;;7.10;4.50;;;11.10;1.00;;;;;;6340858;22;20234;-92
2023/03/14 06:46:04;;;;;;;5.67;3.67;;;11.10;1.00;;;;;;6340563;22;20218;-92
2023/03/14 06:48:31;;;;;;;4.60;3.03;;;11.20;1.00;;;;;;6340697;22;20172;-91
2023/03/14 06:50:57;;;;;;;5.50;3.77;;;11.20;1.00;;;;;;6341220;22;20173;-91
2023/03/14 06:53:25;;;;;;;5.33;3.17;;;11.30;1.00;;;;;;6340829;22;20157;-92
2023/03/14 06:55:51;;;;;;;6.03;2.47;;;11.30;1.00;;;;;;6340865;22;20173;-91
2023/03/14 06:58:18;;;;;;;3.77;2.90;;;11.30;1.00;;;;;;6340501;22;20665;-92
2023/03/14 07:00:47;;;;;;;3.47;2.37;;;11.30;1.00;;;;;;6340578;22;20172;-92
2023/03/14 07:03:15;;;;;;;4.63;3.23;;;11.30;1.00;;;;;;6340368;22;20226;-91
2023/03/14 07:05:42;;;;;;;4.70;3.50;;;11.40;99.90;;;;;;6340947;22;20173;-91
2023/03/14 07:08:09;;;;;;;3.13;2.60;;;11.40;99.90;;;;;;6340888;22;20225;-92
2023/03/14 07:10:36;;;;;;;5.77;4.10;;;11.40;99.90;;;;;;6340742;22;20501;-92
2023/03/14 07:13:04;;;;;;;3.30;2.80;;;11.50;99.90;;;;;;6340885;22;20222;-92
2023/03/14 07:15:31;;;;;;;4.73;3.30;;;11.60;99.90;;;;;;6340722;22;20173;-91
2023/03/14 07:17:59;;;;;;;4.03;2.97;;;11.70;99.90;;;;;;6340512;22;20189;-92
2023/03/14 07:20:26;;;;;;;4.80;3.47;;;11.90;97.50;;;;;;6340812;22;20166;-92
2023/03/14 07:22:54;;;;;;;4.13;2.67;;;12.10;1.00;;;;;;6340409;22;20229;-93
2023/03/14 07:25:21;;;;;;;5.67;3.47;;;12.20;1.00;;;;;;6340838;22;20200;-92
2023/03/14 07:27:48;;;;;;;6.87;3.30;;;12.30;1.00;;;;;;6340856;22;20169;-92
2023/03/14 07:30:16;;;;;;;4.57;3.37;;;12.30;99.90;;;;;;6340967;22;20176;-92
2023/03/14 07:32:42;;;;;;;6.10;3.00;;;12.30;99.90;;;;;;6340494;22;20171;-92
2023/03/14 07:35:11;;;;;;;4.77;2.97;;;12.30;62.90;;;;;;6340680;22;20171;-93
2023/03/14 07:37:38;;;;;;;3.47;2.50;;;12.30;1.00;;;;;;6340488;22;20209;-92
2023/03/14 07:40:06;;;;;;;3.47;2.53;;;12.30;1.00;;;;;;6340906;22;20198;-92
2023/03/14 07:42:33;;;;;;;2.80;2.00;;;12.40;1.00;;;;;;6340743;22;20172;-92
2023/03/14 07:45:00;;;;;;;3.10;1.97;;;12.50;1.00;;;;;;6340456;22;20221;-93
2023/03/14 07:47:27;;;;;;;4.57;1.80;;;12.70;1.00;;;;;;6340463;22;20477;-92
2023/03/14 07:49:54;;;;;;;4.50;2.20;;;12.90;1.00;;;;;;6340334;22;20173;-93
2023/03/14 07:52:23;;;;;;;13.80;5.90;;;13.20;1.00;;;;;;6340451;22;20200;-93
2023/03/14 07:54:50;;;;;;;7.77;4.20;;;13.40;99.90;;;;;;6340795;22;20199;-94
2023/03/14 07:57:17;;;;;;;9.67;4.73;;;13.60;1.00;;;;;;6340262;22;20716;-92
2023/03/14 07:59:44;;;;;;;12.80;5.73;;;13.60;1.00;;;;;;6340405;22;20252;-93
2023/03/14 08:02:12;;;;;;;7.53;3.30;;;13.70;1.00;;;;;;6340276;22;20201;-92
2023/03/14 08:04:40;;;;;;;4.73;3.00;;;13.70;1.00;;;;;;6340372;22;20417;-92
2023/03/14 08:07:07;;;;;;;10.40;5.20;;;13.70;99.90;;;;;;6340020;22;20622;-93
2023/03/14 08:09:35;;;;;;;8.63;3.80;;;13.80;99.90;;;;;;6340534;22;20173;-92
2023/03/14 08:12:02;;;;;;;3.80;1.70;;;14.00;99.90;;;;;;6340099;22;20164;-92
2023/03/14 08:14:30;;;;;;;4.57;2.80;;;14.30;99.90;;;;;;6341048;22;20171;-92
2023/03/14 08:16:57;;;;;;;3.03;1.63;;;14.50;68.80;;;;;;6342451;22;20188;-93
2023/03/14 08:19:24;;;;;;;4.03;2.40;;;14.70;1.00;;;;;;6342277;22;20179;-93
2023/03/14 08:21:51;;;;;;;4.37;1.37;;;14.90;1.00;;;;;;6342122;22;20160;-93
2023/03/14 08:24:18;;;;;;;1.95;1.20;;;15.00;99.90;;;;;;6342394;22;20282;-93
2023/03/14 08:26:46;;;;;;;4.32;1.10;;;15.20;99.90;;;;;;6342095;22;20617;-92
2023/03/14 08:29:13;;;;;;;2.65;1.15;;;15.40;99.90;;;;;;6342394;22;20173;-93
2023/03/14 08:31:40;;;;;;;3.78;1.63;;;15.70;1.00;;;;;;6342169;22;20181;-92
2023/03/14 08:34:07;;;;;;;2.45;1.30;;;16.00;1.00;;;;;;6342367;22;20232;-92
2023/03/14 08:36:34;;;;;;;3.00;1.77;;;16.20;1.00;;;;;;6342197;22;20225;-93
2023/03/14 08:39:03;;;;;;;3.63;1.42;;;16.50;1.00;;;;;;6342275;22;20190;-92
2023/03/14 08:41:30;;;;;;;6.25;3.00;;;16.60;99.90;;;;;;6341686;22;20177;-93
2023/03/14 08:43:58;;;;;;;23.58;8.82;;;16.60;99.90;;;;;;6341622;22;20162;-93
2023/03/14 08:46:25;;;;;;;8.20;1.80;;;16.30;99.90;;;;;;6341620;22;20231;-92
2023/03/14 08:48:52;;;;;;;3.83;1.80;;;15.90;99.90;;;;;;6342063;22;20166;-93
2023/03/14 08:51:19;;;;;;;4.80;2.95;;;15.60;99.90;;;;;;6341925;22;20194;-92
2023/03/14 08:53:46;;;;;;;3.05;1.00;;;15.40;1.00;;;;;;6342029;22;20151;-92
2023/03/14 08:56:13;;;;;;;3.47;1.30;;;15.20;99.90;;;;;;6342034;22;20200;-92
2023/03/14 08:58:41;;;;;;;2.33;1.23;;;15.10;99.90;;;;;;6341659;22;20196;-92
2023/03/14 09:01:11;;;;;;;4.55;1.20;;;15.00;99.90;;;;;;6341679;22;20169;-93
2023/03/14 09:03:39;;;;;;;3.50;1.30;;;14.90;1.00;;;;;;6342025;22;20162;-92
2023/03/14 09:06:08;;;;;;;8.40;1.48;;;14.90;99.90;;;;;;6341879;22;20177;-92
2023/03/14 09:08:35;;;;;;;4.13;1.40;;;14.90;99.90;;;;;;6341202;22;20166;-91
2023/03/14 09:11:02;;;;;;;15.65;2.08;;;14.80;99.90;;;;;;6341773;22;20172;-92
2023/03/14 09:13:29;;;;;;;4.35;1.55;;;14.80;99.90;;;;;;6341553;22;20164;-92
2023/03/14 09:15:57;;;;;;;5.50;2.08;;;14.70;99.90;;;;;;6341735;22;20208;-92
2023/03/14 09:18:25;;;;;;;3.40;1.20;;;14.80;1.00;;;;;;6341534;22;20237;-92
2023/03/14 09:20:52;;;;;;;4.93;1.20;;;14.90;1.00;;;;;;6341595;22;20220;-92
2023/03/14 09:23:19;;;;;;;2.70;1.30;;;14.90;1.00;;;;;;6341718;22;20554;-92
2023/03/14 09:25:46;;;;;;;20.77;2.58;;;15.00;1.00;;;;;;6340885;22;20699;-92
2023/03/14 09:28:13;;;;;;;3.15;1.48;;;15.10;1.00;;;;;;6341102;22;20169;-92
2023/03/14 09:30:40;;;;;;;1.95;0.90;;;15.20;99.90;;;;;;6341607;22;20177;-93
2023/03/14 09:33:07;;;;;;;4.82;1.15;;;15.30;99.90;;;;;;6341234;22;20176;-92
2023/03/14 09:35:36;;;;;;;6.50;1.23;;;15.40;99.90;;;;;;6341668;22;20173;-92
2023/03/14 09:38:03;;;;;;;2.58;1.02;;;15.50;99.90;;;;;;6341392;22;20723;-92
2023/03/14 09:40:34;;;;;;;4.40;1.70;;;15.50;99.90;;;;;;6341694;22;20227;-92
2023/03/14 09:43:01;;;;;;;15.20;3.42;;;15.60;99.90;;;;;;6341206;22;20162;-92
2023/03/14 09:45:33;;;;;;;3.95;1.13;;;15.60;99.90;;;;;;6341457;22;20166;-92
2023/03/14 09:48:00;;;;;;;6.03;1.98;;;15.60;99.90;;;;;;6341284;22;20150;-92
2023/03/14 09:50:31;;;;;;;5.03;1.70;;;15.60;99.90;;;;;;6341574;22;20174;-92
2023/03/14 09:53:04;;;;;;;10.13;3.92;;;15.70;99.90;;;;;;6341251;22;20254;-92
2023/03/14 09:55:32;;;;;;;8.43;3.03;;;15.80;99.90;;;;;;6341212;22;20166;-93
2023/03/14 09:58:03;;;;;;;5.45;1.95;;;16.00;99.90;;;;;;6341104;22;20181;-92
2023/03/14 10:00:32;;;;;;;3.50;2.15;;;16.20;99.90;;;;;;6341275;22;20616;-92
2023/03/14 10:03:15;;;;;;;6.97;4.93;;;16.20;98.10;;;;;;6341389;22;20170;-92
2023/03/14 10:05:42;;;;;;;7.32;4.05;;;16.40;1.00;;;;;;6341046;22;20531;-92
2023/03/14 10:08:13;;;;;;;6.47;4.10;;;16.60;1.00;;;;;;6340888;22;20188;-93
2023/03/14 10:10:41;;;;;;;9.15;2.38;;;16.60;1.00;;;;;;6341069;22;20492;-92
2023/03/14 10:13:16;;;;;;;7.32;2.25;;;16.70;1.00;;;;;;6340958;22;20619;-92
2023/03/14 10:15:47;;;;;;;8.52;2.10;;;16.70;1.00;;;;;;6340985;22;20630;-92
2023/03/14 10:18:15;;;;;;;3.33;1.83;;;16.70;1.00;;;;;;6341198;22;20170;-92
2023/03/14 10:20:44;;;;;;;4.05;1.33;;;16.50;1.00;;;;;;6340947;22;20488;-92
2023/03/14 10:23:27;;;;;;;7.25;2.20;;;16.10;1.00;;;;;;6340674;22;20170;-92
2023/03/14 10:26:08;;;;;;;11.57;1.65;;;15.80;1.00;;;;;;6340902;22;20158;-92
2023/03/14 10:28:40;;;;;;;5.22;2.10;;;15.40;1.00;;;;;;6340804;22;20166;-92
2023/03/14 10:31:07;;;;;;;2.70;1.20;;;15.20;1.00;;;;;;6341326;22;20161;-92
2023/03/14 10:33:36;;;;;;;4.45;1.63;;;15.10;1.00;;;;;;6341023;22;20171;-92
2023/03/14 10:36:06;;;;;;;6.20;1.20;;;15.00;9.10;;;;;;6340568;22;20231;-92
2023/03/14 10:38:36;;;;;;;13.85;10.10;;;15.20;29.30;;;;;;6340099;22;20188;-91
2023/03/14 10:41:15;;;;;;;2.33;1.40;;;15.30;15.00;;;;;;6340313;22;20846;-92
2023/03/14 10:43:42;;;;;;;4.95;2.20;;;15.50;1.00;;;;;;6341088;22;20170;-92
2023/03/14 10:46:13;;;;;;;4.53;1.90;;;15.80;1.00;;;;;;6340507;22;20223;-92
2023/03/14 10:48:41;;;;;;;5.13;2.90;;;15.90;1.00;;;;;;6340936;22;20212;-93
2023/03/14 10:51:11;;;;;;;5.40;2.13;;;16.00;1.00;;;;;;6340676;22;20638;-90
2023/03/14 10:53:45;;;;;;;5.30;2.30;;;16.10;1.00;;;;;;6340813;22;20157;-92
2023/03/14 10:56:14;;;;;;;2.97;1.63;;;16.10;1.00;;;;;;6340409;22;20219;-92
2023/03/14 10:58:44;;;;;;;3.25;1.58;;;16.00;1.00;;;;;;6340797;22;20272;-92
2023/03/14 11:01:30;;;;;;;4.93;2.60;;;15.80;1.00;;;;;;6341025;22;20206;-92
2023/03/14 11:04:02;;;;;;;5.63;2.20;;;15.60;1.00;;;;;;6340549;22;20172;-92
2023/03/14 11:06:37;;;;;;;6.72;2.75;;;15.40;1.00;;;;;;6340989;22;20178;-91
2023/03/14 11:09:11;;;;;;;8.18;2.55;;;15.20;1.00;;;;;;6340553;22;20154;-92
2023/03/14 11:11:44;;;;;;;8.70;2.88;;;15.00;1.00;;;;;;6340998;22;20161;-92
2023/03/14 11:14:20;;;;;;;12.35;2.88;;;14.90;1.00;;;;;;6340911;22;20213;-92
2023/03/14 11:16:57;;;;;;;7.97;2.40;;;14.80;1.00;;;;;;6340708;22;20160;-91
2023/03/14 11:19:44;;;;;;;15.30;4.68;;;14.70;33.30;;;;;;6340475;22;20621;-92
2023/03/14 11:22:22;;;;;;;5.38;2.40;;;14.60;91.40;;;;;;6340623;22;20148;-93
2023/03/14 11:25:06;;;;;;;6.95;2.50;;;14.50;94.60;;;;;;6340115;22;20172;-91
2023/03/14 11:27:42;;;;;;;4.72;2.88;;;14.40;99.90;;;;;;6340554;22;20199;-91
2023/03/14 11:30:19;;;;;;;2.87;1.80;;;14.40;99.90;;;;;;6340235;22;20494;-92
2023/03/14 11:32:50;;;;;;;4.07;2.17;;;14.50;99.90;;;;;;6340410;22;20159;-91
2023/03/14 11:35:26;;;;;;;5.22;2.15;;;14.70;99.90;;;;;;6340386;22;20156;-91
2023/03/14 11:37:56;;;;;;;10.95;4.13;;;15.00;99.90;;;;;;6339911;22;20229;-92
2023/03/14 11:40:28;;;;;;;4.68;2.45;;;15.20;99.90;;;;;;6340025;22;20665;-92
2023/03/14 11:43:01;;;;;;;7.97;3.72;;;15.50;49.60;;;;;;6340086;22;20665;-91
2023/03/14 11:45:33;;;;;;;6.47;2.95;;;15.60;1.00;;;;;;6339954;22;20168;-92
2023/03/14 11:48:22;;;;;;;5.22;2.20;;;15.70;1.00;;;;;;6340078;22;20154;-91
2023/03/14 11:50:53;;;;;;;5.20;2.20;;;15.70;1.00;;;;;;6340412;22;20208;-92
2023/03/14 11:53:26;;;;;;;3.85;1.70;;;15.70;1.00;;;;;;6308914;22;20740;-92
2023/03/14 11:55:55;;;;;;;5.15;1.60;;;15.60;1.00;;;;;;6308879;22;20150;-92
2023/03/14 11:58:25;;;;;;;3.35;1.42;;;15.50;1.00;;;;;;6308505;22;20734;-91
2023/03/14 12:00:55;;;;;;;4.38;2.15;;;15.30;1.00;;;;;;6309188;22;20161;-92
2023/03/14 12:03:31;;;;;;;4.93;1.85;;;15.20;1.00;;;;;;6308893;22;20222;-91
2023/03/14 12:06:10;;;;;;;4.40;2.05;;;15.10;1.00;;;;;;6308603;22;20172;-90
2023/03/14 12:08:48;;;;;;;3.38;1.60;;;15.00;1.00;;;;;;6308369;22;20208;-92
2023/03/14 12:11:22;;;;;;;6.32;2.50;;;15.00;1.00;;;;;;6309308;22;20159;-92
2023/03/14 12:13:51;;;;;;;11.55;2.65;;;15.20;1.00;;;;;;6308828;22;20672;-92
2023/03/14 12:16:35;;;;;;;9.15;3.25;;;15.40;1.00;;;;;;6308406;22;20164;-92
2023/03/14 12:19:25;;;;;;;4.55;2.58;;;15.50;1.00;;;;;;6308533;22;20208;-92
2023/03/14 12:21:56;;;;;;;4.03;2.30;;;15.60;1.00;;;;;;6308713;22;20228;-92
2023/03/14 12:24:25;;;;;;;4.95;1.60;;;15.60;1.00;;;;;;6308356;22;20171;-92
2023/03/14 12:26:56;;;;;;;5.38;1.63;;;15.60;1.00;;;;;;6308798;22;20174;-92
2023/03/14 12:29:23;;;;;;;3.28;1.27;;;15.50;1.00;;;;;;6308939;22;20165;-92
2023/03/14 12:32:22;;;;;;;3.30;1.52;;;15.50;1.00;;;;;;6308613;22;20202;-91
2023/03/14 12:34:49;;;;;;;7.53;2.75;;;15.40;1.00;;;;;;6309644;22;20185;-92
2023/03/14 12:37:26;;;;;;;3.17;1.27;;;15.30;1.00;;;;;;6309056;22;20547;-91
2023/03/14 12:40:17;;;;;;;4.63;2.03;;;15.20;1.00;;;;;;6308863;22;20210;-91
2023/03/14 12:42:59;;;;;;;6.22;2.00;;;15.10;1.00;;;;;;6308629;22;20194;-91
2023/03/14 12:45:29;;;;;;;7.97;2.15;;;15.00;1.00;;;;;;6308728;22;20191;-92
2023/03/14 12:48:05;;;;;;;4.47;2.25;;;15.00;1.00;;;;;;6308598;22;20158;-92
2023/03/14 12:50:37;;;;;;;5.28;2.22;;;15.00;1.00;;;;;;6308979;22;20162;-92
2023/03/14 12:53:30;;;;;;;5.37;3.40;;;14.90;1.00;;;;;;6337101;22;20713;-92
2023/03/14 12:56:07;;;;;;;7.13;3.40;;;14.80;1.00;;;;;;6339739;22;20164;-92
2023/03/14 12:58:39;;;;;;;4.65;2.67;;;14.80;1.00;;;;;;6340035;22;20172;-91
2023/03/14 13:01:11;;;;;;;9.90;4.78;;;14.80;1.00;;;;;;6341296;22;20227;-93
2023/03/14 13:03:44;;;;;;;4.15;2.10;;;14.80;1.00;;;;;;6341579;22;20676;-93
2023/03/14 13:06:12;;;;;;;10.15;4.50;;;14.70;1.00;;;;;;6341431;22;20595;-93
2023/03/14 13:08:42;;;;;;;12.83;6.00;;;14.60;9.60;;;;;;6342108;22;20204;-93
2023/03/14 13:11:12;;;;;;;9.75;5.55;;;14.50;99.90;;;;;;6341423;22;20168;-92
2023/03/14 13:13:48;;;;;;;20.50;12.15;;;14.40;99.90;;;;;;6341520;22;20160;-92
2023/03/14 13:16:18;;;;;;;7.43;3.92;;;14.60;99.90;;;;;;6341913;22;20205;-92
2023/03/14 13:18:46;;;;;;;12.90;7.50;;;14.70;99.90;;;;;;6341201;22;20668;-93
2023/03/14 13:21:17;;;;;;;10.82;6.72;;;14.70;99.90;;;;;;6341739;22;20199;-92
2023/03/14 13:23:57;;;;;;;5.90;3.30;;;14.90;99.90;;;;;;6341503;22;20145;-92
2023/03/14 13:26:26;;;;;;;3.33;2.35;;;14.90;47.20;;;;;;6341709;22;20157;-92
2023/03/14 13:28:56;;;;;;;7.32;3.90;;;14.90;1.00;;;;;;6341698;22;20169;-92
2023/03/14 13:31:25;;;;;;;7.72;4.07;;;15.00;1.00;;;;;;6341508;22;20222;-92
2023/03/14 13:34:03;;;;;;;6.43;3.53;;;15.00;1.00;;;;;;6340903;22;20169;-92
2023/03/14 13:36:30;;;;;;;8.50;4.53;;;15.00;1.00;;;;;;6341741;22;20158;-92
2023/03/14 13:38:58;;;;;;;8.55;4.03;;;15.10;1.00;;;;;;6341173;22;20254;-91
2023/03/14 13:41:26;;;;;;;8.68;4.47;;;15.10;1.00;;;;;;6341197;22;20180;-92
2023/03/14 13:44:03;;;;;;;6.72;3.30;;;15.20;1.00;;;;;;6340891;22;20256;-91
2023/03/14 13:46:31;;;;;;;3.95;1.83;;;15.20;1.00;;;;;;6341077;22;20242;-91
2023/03/14 13:49:01;;;;;;;6.35;3.17;;;15.20;1.00;;;;;;6341228;22;20223;-91
2023/03/14 13:51:31;;;;;;;4.45;2.05;;;15.30;1.00;;;;;;6341071;22;20584;-91
2023/03/14 13:53:59;;;;;;;6.70;3.63;;;15.30;1.00;;;;;;6341283;22;20244;-92
2023/03/14 13:56:28;;;;;;;3.97;1.80;;;15.30;1.00;;;;;;6340861;22;20206;-92
2023/03/14 13:58:56;;;;;;;4.72;2.30;;;15.40;1.00;;;;;;6341225;22;20193;-91
2023/03/14 14:01:28;;;;;;;7.55;3.40;;;15.40;1.00;;;;;;6341254;22;20175;-92
2023/03/14 14:03:58;;;;;;;4.75;2.22;;;15.40;1.00;;;;;;6341394;22;20154;-92
2023/03/14 14:06:29;;;;;;;19.17;3.60;;;15.50;1.00;;;;;;6340668;22;20233;-92
2023/03/14 14:08:57;;;;;;;14.90;4.10;;;15.50;1.00;;;;;;6341470;22;20151;-92
2023/03/14 14:11:36;;;;;;;9.40;4.18;;;15.50;1.00;;;;;;6340865;22;20542;-92
2023/03/14 14:14:05;;;;;;;10.48;5.32;;;15.50;1.00;;;;;;6341167;22;20546;-92
2023/03/14 14:16:33;;;;;;;16.10;4.88;;;15.60;1.00;;;;;;6341186;22;20170;-92
2023/03/14 14:19:02;;;;;;;11.85;4.13;;;15.60;1.00;;;;;;6340711;22;20186;-91
2023/03/14 14:21:30;;;;;;;11.18;6.55;;;15.70;1.00;;;;;;6341043;22;20166;-93
2023/03/14 14:23:58;;;;;;;10.57;5.47;;;15.70;1.00;;;;;;6340801;22;20237;-93
2023/03/14 14:26:27;;;;;;;16.88;7.28;;;15.50;1.00;;;;;;6340938;22;20172;-94
2023/03/14 14:29:02;;;;;;;15.85;8.15;;;15.30;1.00;;;;;;6341163;22;20225;-93
2023/03/14 14:31:29;;;;;;;5.75;3.85;;;15.10;1.00;;;;;;6341240;22;20149;-92
2023/03/14 14:33:58;;;;;;;5.57;3.88;;;15.00;1.00;;;;;;6340411;22;20170;-92
2023/03/14 14:36:29;;;;;;;4.93;2.20;;;14.90;1.00;;;;;;6341333;22;20198;-92
2023/03/14 14:39:01;;;;;;;11.02;6.07;;;14.90;1.00;;;;;;6340774;22;20622;-92
2023/03/14 14:41:30;;;;;;;5.35;3.15;;;14.80;1.00;;;;;;6340793;22;20156;-92
2023/03/14 14:43:58;;;;;;;1.33;1.20;;;14.80;1.00;;;;;;6341256;22;20195;-92
2023/03/14 14:46:29;;;;;;;5.15;1.30;;;14.80;1.00;;;;;;6340751;22;20249;-93
2023/03/14 14:49:03;;;;;;;3.58;2.25;;;14.80;1.00;;;;;;6340756;22;20625;-92
2023/03/14 14:51:39;;;;;;;5.05;2.70;;;14.70;1.00;;;;;;6340423;22;20671;-92
2023/03/14 14:54:17;;;;;;;2.47;1.63;;;14.70;1.00;;;;;;6339440;22;20159;-93
2023/03/14 14:56:49;;;;;;;6.33;4.07;;;14.70;1.00;;;;;;6339182;22;20663;-92
2023/03/14 14:59:22;;;;;;;7.95;4.05;;;14.70;1.00;;;;;;6339125;22;20732;-92
2023/03/14 15:01:50;;;;;;;4.70;2.85;;;14.60;1.00;;;;;;6339441;22;20157;-93
2023/03/14 15:04:19;;;;;;;9.27;4.00;;;14.60;1.00;;;;;;6339751;22;20255;-92
2023/03/14 15:06:49;;;;;;;10.23;3.83;;;14.70;1.00;;;;;;6340344;22;20484;-93
2023/03/14 15:09:17;;;;;;;5.75;3.25;;;14.80;1.00;;;;;;6338932;22;20178;-92
2023/03/14 15:11:44;;;;;;;5.95;3.25;;;14.90;1.00;;;;;;6339502;22;20174;-92
2023/03/14 15:14:11;;;;;;;20.02;4.70;;;15.00;1.00;;;;;;6339442;22;20610;-92
2023/03/14 15:16:40;;;;;;;3.75;2.55;;;15.10;1.00;;;;;;6338825;22;20611;-92
2023/03/14 15:19:13;;;;;;;6.90;2.10;;;15.10;1.00;;;;;;6339343;22;20233;-93
2023/03/14 15:21:41;;;;;;;3.72;1.88;;;15.00;1.00;;;;;;6339478;22;20153;-92
2023/03/14 15:24:10;;;;;;;3.65;1.90;;;14.80;1.00;;;;;;6340030;22;20172;-93
2023/03/14 15:26:37;;;;;;;2.40;1.70;;;14.60;1.00;;;;;;6339550;22;20169;-94
2023/03/14 15:29:07;;;;;;;3.97;2.40;;;14.40;1.00;;;;;;6339436;22;20171;-93
2023/03/14 15:31:36;;;;;;;4.97;3.00;;;14.30;1.00;;;;;;6338797;22;20550;-93
2023/03/14 15:34:03;;;;;;;5.05;2.03;;;14.10;3.80;;;;;;6339096;22;20725;-91
2023/03/14 15:36:32;;;;;;;4.87;3.30;;;14.00;17.10;;;;;;6339151;22;20625;-91
2023/03/14 15:39:01;;;;;;;3.40;1.70;;;13.90;93.40;;;;;;6338645;22;20223;-92
2023/03/14 15:41:29;;;;;;;8.23;4.67;;;13.80;99.90;;;;;;6338731;22;20225;-93
2023/03/14 15:43:56;;;;;;;3.70;2.10;;;13.70;99.90;;;;;;6339205;22;20174;-91
2023/03/14 15:46:24;;;;;;;3.63;1.97;;;13.70;99.90;;;;;;6338615;22;20569;-90
2023/03/14 15:48:52;;;;;;;6.87;2.73;;;13.70;99.90;;;;;;6338435;22;20506;-94
2023/03/14 15:51:19;;;;;;;3.27;2.57;;;13.60;99.90;;;;;;6288937;22;1141574;-94
2023/03/14 15:53:47;;;;;;;9.20;3.67;;;13.70;99.90;;;;;;6340433;22;20214;-94
2023/03/14 15:56:16;;;;;;;4.87;2.77;;;13.70;99.90;;;;;;6340637;22;20177;-91
2023/03/14 15:58:46;;;;;;;5.97;3.93;;;13.80;99.90;;;;;;6339828;22;20198;-91
2023/03/14 16:01:15;;;;;;;3.20;1.60;;;13.90;99.90;;;;;;6339723;22;20240;-90
2023/03/14 16:03:43;;;;;;;4.00;2.20;;;14.00;99.90;;;;;;6339374;22;20191;-91
2023/03/14 16:06:10;;;;;;;3.53;2.40;;;14.00;99.90;;;;;;6339554;22;20172;-90
2023/03/14 16:08:37;;;;;;;4.20;2.80;;;14.00;99.90;;;;;;6339367;22;20169;-91
2023/03/14 16:11:04;;;;;;;6.07;3.00;;;13.90;99.90;;;;;;6339718;22;20175;-90
2023/03/14 16:13:33;;;;;;;8.07;4.20;;;13.80;99.90;;;;;;6339230;22;20173;-92
2023/03/14 16:16:02;;;;;;;6.70;4.70;;;13.60;99.90;;;;;;6339651;22;20170;-92
2023/03/14 16:18:30;;;;;;;6.67;4.60;;;13.50;99.90;;;;;;6339798;22;20167;-92
2023/03/14 16:20:59;;;;;;;7.10;4.50;;;13.40;99.90;;;;;;6339860;22;20192;-92
2023/03/14 16:23:27;;;;;;;5.23;3.90;;;13.40;99.90;;;;;;6339742;22;20167;-92
2023/03/14 16:25:55;;;;;;;7.50;4.17;;;13.30;99.90;;;;;;6339817;22;20219;-92
2023/03/14 16:28:23;;;;;;;4.80;3.10;;;13.20;99.90;;;;;;6340102;22;20172;-91
2023/03/14 16:30:52;;;;;;;7.30;4.20;;;13.10;1.00;;;;;;6339785;22;20169;-92
2023/03/14 16:33:19;;;;;;;4.27;2.93;;;13.10;1.00;;;;;;6340364;22;20176;-91
2023/03/14 16:35:56;;;;;;;5.77;2.87;;;13.10;1.00;;;;;;6340589;22;20635;-93
2023/03/14 16:38:23;;;;;;;6.07;3.70;;;12.90;1.00;;;;;;6341512;22;20691;-91
2023/03/14 16:40:59;;;;;;;2.97;2.60;;;12.80;1.00;;;;;;6341743;22;20184;-91
2023/03/14 16:43:26;;;;;;;4.00;2.70;;;12.70;1.00;;;;;;6341160;22;20182;-91
2023/03/14 16:45:54;;;;;;;4.50;3.40;;;12.50;1.00;;;;;;6341383;22;20168;-92
2023/03/14 16:48:21;;;;;;;6.53;3.80;;;12.50;1.00;;;;;;6341842;22;20171;-91
2023/03/14 16:50:50;;;;;;;4.73;3.60;;;12.50;1.00;;;;;;6341464;22;20170;-91
2023/03/14 16:53:18;;;;;;;7.30;4.70;;;12.50;1.00;;;;;;6341771;22;20217;-92
2023/03/14 16:55:45;;;;;;;7.03;4.97;;;12.50;1.00;;;;;;6341324;22;20173;-92
2023/03/14 16:58:13;;;;;;;6.30;4.50;;;12.50;1.00;;;;;;6341446;22;20176;-91
2023/03/14 17:00:40;;;;;;;5.00;3.70;;;12.50;1.00;;;;;;6341365;22;20182;-91
2023/03/14 17:03:09;;;;;;;4.40;3.47;;;12.50;1.00;;;;;;6341019;22;20241;-91
2023/03/14 17:05:36;;;;;;;9.00;6.97;;;12.40;1.00;;;;;;6340874;22;20171;-91
2023/03/14 17:08:03;;;;;;;17.97;16.00;;;12.40;1.00;;;;;;6341475;22;20172;-91
2023/03/14 17:10:30;;;;;;;15.60;13.43;;;12.40;1.00;;;;;;6341137;22;20165;-91
2023/03/14 17:12:57;;;;;;;19.13;12.37;;;12.40;1.00;;;;;;6341500;22;20221;-91
2023/03/14 17:15:24;;;;;;;13.10;7.87;;;12.40;1.00;;;;;;6340737;22;20555;-90
2023/03/14 17:17:51;;;;;;;11.37;6.07;;;12.40;14.10;;;;;;6340845;22;20175;-90
2023/03/14 17:20:19;;;;;;;1.80;1.10;;;12.00;1.00;;;;;;6340881;22;20239;-90
2023/03/14 17:22:46;;;;;;;2.17;1.00;;;11.20;1.00;;;;;;6340921;22;20222;-92
2023/03/14 17:25:14;;;;;;;1.33;1.03;;;10.30;22.70;;;;;;6341638;22;20170;-91
2023/03/14 17:27:40;;;;;;;3.00;1.40;;;9.50;11.60;;;;;;6340917;22;20198;-91
2023/03/14 17:30:09;;;;;;;2.73;1.20;;;8.90;99.90;;;;;;6341445;22;20626;-92
2023/03/14 17:32:36;;;;;;;4.47;0.87;;;8.40;99.90;;;;;;6340674;22;20176;-91
2023/03/14 17:35:04;;;;;;;1.00;0.87;;;7.80;1.00;;;;;;6340570;22;20224;-91
2023/03/14 17:37:32;;;;;;;1.50;1.20;;;7.30;1.00;;;;;;6341006;22;20522;-92
2023/03/14 17:40:00;;;;;;;0.77;0.67;;;7.00;99.90;;;;;;6340551;22;20260;-93
2023/03/14 17:42:27;;;;;;;3.80;0.73;;;6.70;99.90;;;;;;6339838;22;20177;-92
2023/03/14 17:44:54;;;;;;;0.83;0.50;;;6.50;1.00;;;;;;6341028;22;20178;-92
2023/03/14 17:47:21;;;;;;;1.00;0.40;;;6.20;99.90;;;;;;6339992;22;20179;-92
2023/03/14 17:49:48;;;;;;;1.20;0.43;;;6.00;99.90;;;;;;6341028;22;20222;-92
2023/03/14 17:52:15;;;;;;;3.40;0.70;;;5.70;99.90;;;;;;6340404;22;20195;-92
2023/03/14 17:54:43;;;;;;;1.80;0.93;;;5.40;1.00;;;;;;6340881;22;20172;-91
2023/03/14 17:57:11;;;;;;;2.87;2.30;;;5.20;1.00;;;;;;6339851;22;20170;-89
2023/03/14 17:59:37;;;;;;;5.50;3.17;;;4.90;1.00;;;;;;6339637;22;20223;-90
2023/03/14 18:02:05;;;;;;;1.77;1.10;;;4.50;99.90;;;;;;6342100;22;20225;-94
2023/03/14 18:04:32;;;;;;;1.60;1.50;;;4.10;1.00;;;;;;6341373;22;20246;-93
2023/03/14 18:06:59;;;;;;;3.77;2.50;;;3.80;1.00;;;;;;6341423;22;20170;-96
2023/03/14 18:09:26;;;;;;;4.05;2.25;;;3.60;99.90;;;;;;6343594;22;20347;-95
2023/03/14 18:11:55;;;;;;;3.57;2.40;;;3.60;99.90;;;;;;6342962;22;20166;-95
2023/03/14 18:14:22;;;;;;;4.37;3.57;;;3.40;1.00;;;;;;6341577;22;20219;-95
2023/03/14 18:16:50;;;;;;;2.70;2.50;;;3.20;1.00;;;;;;6341083;22;20170;-94
2023/03/14 18:19:17;;;;;;;3.30;2.90;;;3.10;99.90;;;;;;6341180;22;20254;-92
2023/03/14 18:21:46;;;;;;;1.87;1.50;;;3.00;99.90;;;;;;6341373;22;20211;-94
2023/03/14 18:24:13;;;;;;;2.33;1.20;;;2.90;1.00;;;;;;6340828;22;20248;-94
2023/03/14 18:26:40;;;;;;;1.80;1.40;;;2.80;1.00;;;;;;6341517;22;20171;-94
2023/03/14 18:29:08;;;;;;;2.67;1.80;;;2.70;1.00;;;;;;6341760;22;20174;-95
2023/03/14 18:31:35;;;;;;;1.90;1.57;;;2.70;47.30;;;;;;6341589;22;20227;-96
2023/03/14 18:34:02;;;;;;;2.83;1.90;;;2.60;99.90;;;;;;6341382;22;20174;-96
2023/03/14 18:36:29;;;;;;;1.90;1.50;;;2.50;99.90;;;;;;6342345;22;20215;-95
2023/03/14 18:38:57;;;;;;;3.37;1.87;;;2.40;99.90;;;;;;6341630;22;20616;-95
2023/03/14 18:41:25;;;;;;;3.13;2.17;;;2.30;1.00;;;;;;6341450;22;20182;-96
2023/03/14 18:43:53;;;;;;;7.50;4.10;;;2.40;1.00;;;;;;6346018;22;20226;-95
2023/03/14 18:46:22;;;;;;;12.17;5.57;;;2.40;74.40;;;;;;6343787;22;20170;-96
2023/03/14 18:48:55;;;;;;;15.80;6.27;;;2.30;99.90;;;;;;6356225;22;20185;-96
2023/03/14 18:51:24;;;;;;;7.73;3.07;;;2.20;99.90;;;;;;6365292;22;20149;-96
2023/03/14 18:53:53;;;;;;;15.23;6.83;;;2.60;1.00;;;;;;6364068;22;20152;-96
2023/03/14 18:56:20;;;;;;;12.57;5.40;;;2.70;1.00;;;;;;6366172;22;20177;-96